Pasadena Hills, Missouri
Current Conditions -  °F | °C
As of 2:51 AM on Wednesday 22 Oct 2014 (Local Time) from KSTL Reporting Station
Clear Clear  
Wind Chill: 44°   Ceiling: Unl
Heat Index: 47°   Visibility: 10mi
Dew Point: 40°   Wind: 7mph
Humidity: 77%   Direction: 80°E
Pressure: 30.23"   Gusts: NA
Location:  38.7055°N, 90.3021°W
Report Text: KSTL 220751Z 08006KT 10SM CLR 08/04 A3023 RMK AO2 SLP235 T00830044
Loading
Personal Weather Stations






























Interactive Weather Map
Tropical Storm Tracking
New forecast layout! Learn more

10-Day Weather Forecast

Advertisements
Track Severe Weather on mobile